createdAt,value
2019-02-21T00:02:11.501Z,11.18
2019-02-21T00:04:41.992Z,11.68
2019-02-21T00:07:12.489Z,11.10
2019-02-21T00:09:43.136Z,11.88
2019-02-21T00:12:13.523Z,11.93
2019-02-21T00:14:43.876Z,10.50
2019-02-21T00:17:14.304Z,11.83
2019-02-21T00:19:44.759Z,10.85
2019-02-21T00:22:15.112Z,10.95
2019-02-21T00:24:45.457Z,11.03
2019-02-21T00:27:15.799Z,11.22
2019-02-21T00:29:46.229Z,12.40
2019-02-21T00:32:16.996Z,11.33
2019-02-21T00:34:47.343Z,12.40
2019-02-21T00:37:17.696Z,10.80
2019-02-21T00:39:48.107Z,11.43
2019-02-21T00:42:19.607Z,10.72
2019-02-21T00:44:50.023Z,11.95
2019-02-21T00:47:21.165Z,10.80
2019-02-21T00:49:51.573Z,11.48
2019-02-21T00:52:21.919Z,10.53
2019-02-21T00:54:52.364Z,11.33
2019-02-21T00:57:22.785Z,10.65
2019-02-21T00:59:53.681Z,11.00
2019-02-21T01:02:24.299Z,11.00
2019-02-21T01:04:54.686Z,10.40
2019-02-21T01:07:27.023Z,10.03
2019-02-21T01:09:57.557Z,10.93
2019-02-21T01:12:27.897Z,10.28
2019-02-21T01:14:58.344Z,10.23
2019-02-21T01:17:28.701Z,9.78
2019-02-21T01:19:59.339Z,9.95
2019-02-21T01:22:29.675Z,9.60
2019-02-21T01:25:00.529Z,10.00
2019-02-21T01:27:31.679Z,9.45
2019-02-21T01:30:02.040Z,9.08
2019-02-21T01:32:34.019Z,8.63
2019-02-21T01:35:04.640Z,9.35
2019-02-21T01:37:35.331Z,8.58
2019-02-21T01:40:06.267Z,8.18
2019-02-21T01:42:36.872Z,8.43
2019-02-21T01:45:08.069Z,8.43
2019-02-21T01:47:38.453Z,8.85
2019-02-21T01:50:09.119Z,7.67
2019-02-21T01:52:39.601Z,8.00
2019-02-21T01:55:10.256Z,8.18
2019-02-21T01:57:40.649Z,8.73
2019-02-21T02:00:12.795Z,8.48
2019-02-21T02:02:43.276Z,8.40
2019-02-21T02:05:14.011Z,9.40
2019-02-21T02:07:44.476Z,8.93
2019-02-21T02:10:15.067Z,9.03
2019-02-21T02:12:45.519Z,8.83
2019-02-21T02:15:16.035Z,9.38
2019-02-21T02:17:46.463Z,9.55
2019-02-21T02:20:16.980Z,9.88
2019-02-21T02:22:47.450Z,9.30
2019-02-21T02:25:17.788Z,9.38
2019-02-21T02:27:49.059Z,10.28
2019-02-21T02:30:19.405Z,10.03
2019-02-21T02:32:49.840Z,10.72
2019-02-21T02:35:22.173Z,10.63
2019-02-21T02:37:52.483Z,11.22
2019-02-21T02:40:22.813Z,11.48
2019-02-21T02:42:53.162Z,12.20
2019-02-21T02:45:23.596Z,11.10
2019-02-21T02:47:54.571Z,11.83
2019-02-21T02:50:24.993Z,12.10
2019-02-21T02:52:55.364Z,12.80
2019-02-21T02:55:27.044Z,13.50
2019-02-21T02:57:57.497Z,13.55
2019-02-21T03:00:28.553Z,14.15
2019-02-21T03:02:59.317Z,13.98
2019-02-21T03:05:29.602Z,14.78
2019-02-21T03:07:59.977Z,14.53
2019-02-21T03:10:30.296Z,15.28
2019-02-21T03:13:00.665Z,15.05
2019-02-21T03:15:31.173Z,15.93
2019-02-21T03:18:01.643Z,15.80
2019-02-21T03:20:32.127Z,16.27
2019-02-21T03:23:03.450Z,17.90
2019-02-21T03:25:33.811Z,17.60
2019-02-21T03:28:04.296Z,18.05
2019-02-21T03:30:34.704Z,18.12
2019-02-21T03:33:05.100Z,18.30
2019-02-21T03:35:35.494Z,20.15
2019-02-21T03:38:05.815Z,20.20
2019-02-21T03:40:36.218Z,20.90
2019-02-21T03:43:06.856Z,19.82
2019-02-21T03:45:37.903Z,21.35
2019-02-21T03:48:08.355Z,21.55
2019-02-21T03:50:38.766Z,20.20
2019-02-21T03:53:09.121Z,20.77
2019-02-21T03:55:39.572Z,21.60
2019-02-21T03:58:10.386Z,21.35
2019-02-21T04:00:40.752Z,21.73
2019-02-21T04:03:11.687Z,23.50
2019-02-21T04:05:42.346Z,22.32
2019-02-21T04:08:12.708Z,22.85
2019-02-21T04:10:43.173Z,22.13
2019-02-21T04:13:15.272Z,22.90
2019-02-21T04:15:46.039Z,21.85
2019-02-21T04:18:16.436Z,21.45
2019-02-21T04:20:46.874Z,21.87
2019-02-21T04:23:18.347Z,21.52
2019-02-21T04:25:48.794Z,21.48
2019-02-21T04:28:19.271Z,21.00
2019-02-21T04:30:49.670Z,21.20
2019-02-21T04:33:20.311Z,19.37
2019-02-21T04:35:50.731Z,20.35
2019-02-21T04:38:21.367Z,18.37
2019-02-21T04:40:51.683Z,19.48
2019-02-21T04:43:22.020Z,19.50
2019-02-21T04:45:52.355Z,19.10
2019-02-21T04:48:22.845Z,19.12
2019-02-21T04:50:54.451Z,20.27
2019-02-21T04:53:24.947Z,19.65
2019-02-21T04:55:55.310Z,19.52
2019-02-21T04:58:25.694Z,19.25
2019-02-21T05:00:56.968Z,18.50
2019-02-21T05:03:28.868Z,18.87
2019-02-21T05:05:59.213Z,18.02
2019-02-21T05:08:29.971Z,20.05
2019-02-21T05:11:00.288Z,20.15
2019-02-21T05:13:30.630Z,19.77
2019-02-21T05:16:01.138Z,20.92
2019-02-21T05:18:31.441Z,19.40
2019-02-21T05:21:01.765Z,19.57
2019-02-21T05:23:32.135Z,20.25
2019-02-21T05:26:02.553Z,20.95
2019-02-21T05:28:33.488Z,20.97
2019-02-21T05:31:16.747Z,18.87
2019-02-21T05:34:05.692Z,19.98
2019-02-21T05:36:55.160Z,19.35
2019-02-21T05:39:32.304Z,20.80
2019-02-21T05:42:24.568Z,20.20
2019-02-21T05:45:12.704Z,19.25
2019-02-21T05:47:53.292Z,20.62
2019-02-21T05:50:42.835Z,20.35
2019-02-21T05:53:19.159Z,20.20
2019-02-21T05:55:54.939Z,21.60
2019-02-21T05:58:44.345Z,21.68
2019-02-21T06:01:28.327Z,21.45
2019-02-21T06:04:06.470Z,21.97
2019-02-21T06:06:53.436Z,21.33
2019-02-21T06:10:01.997Z,22.40
2019-02-21T06:12:45.011Z,22.25
2019-02-21T06:15:22.675Z,22.65
2019-02-21T06:18:11.214Z,23.35
2019-02-21T06:21:07.071Z,21.62
2019-02-21T06:23:51.435Z,22.05
2019-02-21T06:26:29.378Z,24.30
2019-02-21T06:29:03.956Z,22.85
2019-02-21T06:31:34.506Z,24.00
2019-02-21T06:34:04.851Z,23.42
2019-02-21T06:36:35.182Z,23.05
2019-02-21T06:39:07.969Z,22.52
2019-02-21T06:41:38.364Z,23.27
2019-02-21T06:44:08.789Z,23.42
2019-02-21T06:46:39.130Z,23.00
2019-02-21T06:49:09.455Z,24.60
2019-02-21T06:51:39.828Z,23.77
2019-02-21T06:54:10.705Z,24.30
2019-02-21T06:56:41.122Z,23.50
2019-02-21T06:59:11.545Z,24.82
2019-02-21T07:01:42.617Z,24.92
2019-02-21T07:04:12.947Z,23.95
2019-02-21T07:06:43.371Z,24.23
2019-02-21T07:09:13.963Z,24.80
2019-02-21T07:11:46.045Z,23.85
2019-02-21T07:14:16.576Z,24.18
2019-02-21T07:16:46.915Z,24.63
2019-02-21T07:19:18.091Z,25.25
2019-02-21T07:21:48.532Z,24.20
2019-02-21T07:24:18.971Z,23.85
2019-02-21T07:26:49.344Z,25.32
2019-02-21T07:29:19.668Z,24.70
2019-02-21T07:31:49.991Z,25.92
2019-02-21T07:34:22.851Z,25.70
2019-02-21T07:36:53.245Z,25.75
2019-02-21T07:39:23.596Z,26.05
2019-02-21T07:41:55.674Z,25.85
2019-02-21T07:44:26.927Z,25.72
2019-02-21T07:46:57.331Z,27.22
2019-02-21T07:49:27.735Z,26.57
2019-02-21T07:51:58.167Z,24.85
2019-02-21T07:54:28.530Z,25.82
2019-02-21T07:56:58.856Z,25.90
2019-02-21T07:59:29.239Z,25.43
2019-02-21T08:02:00.203Z,24.90
2019-02-21T08:04:31.340Z,25.57
2019-02-21T08:07:01.659Z,25.37
2019-02-21T08:09:32.462Z,24.70
2019-02-21T08:12:02.950Z,25.55
2019-02-21T08:14:33.430Z,24.65
2019-02-21T08:17:03.906Z,24.07
2019-02-21T08:19:34.311Z,24.07
2019-02-21T08:22:04.643Z,23.70
2019-02-21T08:24:35.018Z,25.48
2019-02-21T08:27:05.421Z,25.92
2019-02-21T08:29:35.887Z,24.57
2019-02-21T08:32:06.328Z,25.85
2019-02-21T08:34:40.760Z,24.27
2019-02-21T08:37:11.091Z,26.05
2019-02-21T08:39:41.447Z,25.62
2019-02-21T08:42:11.818Z,25.77
2019-02-21T08:44:42.283Z,26.62
2019-02-21T08:47:12.579Z,26.10
2019-02-21T08:49:42.928Z,25.50
2019-02-21T08:52:13.270Z,26.57
2019-02-21T08:54:43.757Z,26.37
2019-02-21T08:57:14.145Z,26.65
2019-02-21T08:59:44.655Z,26.90
2019-02-21T09:02:15.015Z,27.02
2019-02-21T09:04:46.154Z,25.48
2019-02-21T09:07:16.551Z,27.20
2019-02-21T09:09:47.556Z,26.50
2019-02-21T09:12:19.971Z,26.45
2019-02-21T09:14:50.364Z,27.73
2019-02-21T09:17:20.647Z,28.30
2019-02-21T09:19:51.043Z,29.48
2019-02-21T09:22:21.480Z,28.27
2019-02-21T09:24:52.056Z,29.40
2019-02-21T09:27:22.496Z,30.25
2019-02-21T09:29:52.846Z,30.25
2019-02-21T09:32:23.227Z,28.52
2019-02-21T09:34:53.619Z,27.80
2019-02-21T09:37:24.327Z,29.23
2019-02-21T09:39:54.833Z,29.00
2019-02-21T09:42:26.218Z,29.60
2019-02-21T09:44:56.633Z,27.45
2019-02-21T09:47:27.306Z,26.42
2019-02-21T09:49:57.741Z,27.50
2019-02-21T09:52:28.168Z,25.27
2019-02-21T09:54:59.319Z,26.42
2019-02-21T09:57:29.671Z,26.93
2019-02-21T10:00:01.031Z,27.80
2019-02-21T10:02:32.304Z,28.20
2019-02-21T10:05:05.302Z,27.55
2019-02-21T10:07:37.073Z,27.42
2019-02-21T10:10:10.931Z,26.52
2019-02-21T10:12:44.969Z,25.70
2019-02-21T10:15:15.833Z,26.50
2019-02-21T10:17:46.299Z,25.05
2019-02-21T10:20:18.066Z,25.82
2019-02-21T10:22:48.464Z,25.65
2019-02-21T10:25:23.173Z,25.68
2019-02-21T10:27:53.297Z,24.15
2019-02-21T10:30:23.810Z,24.75
2019-02-21T10:32:54.215Z,24.30
2019-02-21T10:35:25.104Z,23.55
2019-02-21T10:37:56.326Z,26.07
2019-02-21T10:40:28.388Z,27.00
2019-02-21T10:42:58.772Z,27.48
2019-02-21T10:45:29.535Z,26.00
2019-02-21T10:47:59.971Z,25.45
2019-02-21T10:50:30.383Z,26.65
2019-02-21T10:53:00.768Z,24.70
2019-02-21T10:55:31.091Z,24.23
2019-02-21T10:58:01.507Z,22.90
2019-02-21T11:00:32.132Z,22.77
2019-02-21T11:03:02.563Z,23.57
2019-02-21T11:05:33.068Z,22.93
2019-02-21T11:08:04.533Z,23.18
2019-02-21T11:10:36.248Z,23.12
2019-02-21T11:13:06.696Z,23.25
2019-02-21T11:15:37.188Z,22.50
2019-02-21T11:18:07.676Z,22.13
2019-02-21T11:20:38.090Z,22.80
2019-02-21T11:23:08.529Z,21.65
2019-02-21T11:25:39.048Z,21.25
2019-02-21T11:28:10.474Z,21.52
2019-02-21T11:30:40.903Z,20.77
2019-02-21T11:33:12.292Z,20.08
2019-02-21T11:35:42.614Z,19.62
2019-02-21T11:38:13.079Z,20.23
2019-02-21T11:40:44.023Z,20.00
2019-02-21T11:43:15.182Z,20.75
2019-02-21T11:45:53.911Z,20.15
2019-02-21T11:48:18.973Z,19.52
2019-02-21T11:50:49.620Z,18.48
2019-02-21T11:53:20.108Z,18.73
2019-02-21T11:55:50.494Z,17.25
2019-02-21T11:58:20.953Z,18.05
2019-02-21T12:00:51.423Z,17.98
2019-02-21T12:03:21.841Z,17.42
2019-02-21T12:05:52.352Z,17.15
2019-02-21T12:08:23.152Z,16.73
2019-02-21T12:10:53.914Z,17.32
2019-02-21T12:13:24.316Z,17.17
2019-02-21T12:15:54.812Z,17.85
2019-02-21T12:18:25.268Z,18.23
2019-02-21T12:20:56.751Z,17.15
2019-02-21T12:23:27.807Z,17.55
2019-02-21T12:25:58.873Z,16.80
2019-02-21T12:28:29.220Z,18.15
2019-02-21T12:30:59.624Z,18.07
2019-02-21T12:33:30.031Z,17.57
2019-02-21T12:36:00.501Z,17.98
2019-02-21T12:38:30.940Z,17.85
2019-02-21T12:41:02.466Z,17.25
2019-02-21T12:43:32.828Z,17.45
2019-02-21T12:46:03.223Z,17.05
2019-02-21T12:48:33.644Z,16.77
2019-02-21T12:51:04.072Z,17.23
2019-02-21T12:53:34.593Z,17.52
2019-02-21T12:56:05.649Z,18.00
2019-02-21T12:58:36.047Z,16.97
2019-02-21T13:01:06.562Z,19.40
2019-02-21T13:03:37.308Z,19.50
2019-02-21T13:06:07.831Z,18.40
2019-02-21T13:08:38.316Z,20.30
2019-02-21T13:11:08.668Z,19.23
2019-02-21T13:13:42.023Z,19.85
2019-02-21T13:16:12.419Z,21.05
2019-02-21T13:18:42.883Z,20.65
2019-02-21T13:21:14.329Z,21.07
2019-02-21T13:23:44.689Z,21.35
2019-02-21T13:26:15.031Z,20.32
2019-02-21T13:28:45.447Z,21.55
2019-02-21T13:31:15.821Z,20.70
2019-02-21T13:33:46.501Z,20.50
2019-02-21T13:36:17.530Z,21.55
2019-02-21T13:38:48.001Z,20.92
2019-02-21T13:41:18.431Z,20.82
2019-02-21T13:43:48.942Z,19.82
2019-02-21T13:46:19.439Z,21.97
2019-02-21T13:48:50.103Z,21.87
2019-02-21T13:51:20.523Z,21.37
2019-02-21T13:53:52.317Z,21.42
2019-02-21T13:56:22.975Z,21.73
2019-02-21T13:58:53.375Z,21.93
2019-02-21T14:01:25.804Z,21.40
2019-02-21T14:03:56.784Z,20.57
2019-02-21T14:06:27.277Z,21.57
2019-02-21T14:08:57.625Z,20.35
2019-02-21T14:11:30.715Z,19.77
2019-02-21T14:14:01.299Z,19.85
2019-02-21T14:16:31.728Z,19.95
2019-02-21T14:19:02.056Z,18.87
2019-02-21T14:21:32.439Z,19.98
2019-02-21T14:24:02.869Z,19.10
2019-02-21T14:26:33.299Z,19.55
2019-02-21T14:29:09.793Z,19.73
2019-02-21T14:31:40.232Z,20.02
2019-02-21T14:34:11.212Z,18.05
2019-02-21T14:36:41.821Z,18.50
2019-02-21T14:39:18.354Z,17.73
2019-02-21T14:41:48.762Z,17.87
2019-02-21T14:44:19.228Z,17.32
2019-02-21T14:46:50.337Z,16.45
2019-02-21T14:49:20.812Z,16.55
2019-02-21T14:51:51.420Z,16.37
2019-02-21T14:54:22.089Z,16.37
2019-02-21T14:56:52.559Z,16.50
2019-02-21T14:59:23.011Z,15.72
2019-02-21T15:01:54.062Z,15.25
2019-02-21T15:04:24.410Z,16.35
2019-02-21T15:06:54.867Z,16.42
2019-02-21T15:09:25.322Z,16.32
2019-02-21T15:11:55.749Z,17.85
2019-02-21T15:14:26.716Z,18.27
2019-02-21T15:16:57.276Z,16.87
2019-02-21T15:19:27.703Z,16.75
2019-02-21T15:21:58.138Z,18.17
2019-02-21T15:24:28.420Z,17.52
2019-02-21T15:27:08.114Z,17.77
2019-02-21T15:29:32.780Z,18.05
2019-02-21T15:32:10.744Z,17.70
2019-02-21T15:34:35.495Z,17.45
2019-02-21T15:37:06.063Z,18.20
2019-02-21T15:39:37.200Z,18.23
2019-02-21T15:42:07.615Z,18.35
2019-02-21T15:46:59.394Z,19.12
2019-02-21T15:49:29.820Z,18.62
2019-02-21T15:52:03.814Z,19.00
2019-02-21T15:54:34.732Z,19.45
2019-02-21T15:57:29.605Z,19.45
2019-02-21T16:00:02.747Z,19.50
2019-02-21T16:02:33.503Z,18.17
2019-02-21T16:05:04.077Z,20.82
2019-02-21T16:07:40.617Z,20.15
2019-02-21T16:10:15.547Z,24.55
2019-02-21T16:12:46.311Z,22.35
2019-02-21T16:15:18.516Z,23.07
2019-02-21T16:17:50.781Z,20.77
2019-02-21T16:20:21.517Z,20.48
2019-02-21T16:22:51.956Z,20.77
2019-02-21T16:25:22.513Z,20.30
2019-02-21T16:27:55.243Z,20.00
2019-02-21T16:30:25.393Z,19.57
2019-02-21T16:32:55.732Z,18.30
2019-02-21T16:35:27.265Z,19.32
2019-02-21T16:37:59.685Z,19.57
2019-02-21T16:40:30.170Z,20.55
2019-02-21T16:43:00.943Z,19.80
2019-02-21T16:45:42.879Z,20.17
2019-02-21T16:48:04.619Z,20.80
2019-02-21T16:50:34.996Z,18.98
2019-02-21T16:53:05.442Z,20.08
2019-02-21T16:55:36.612Z,19.10
2019-02-21T16:58:06.939Z,18.55
2019-02-21T17:00:50.212Z,18.57
2019-02-21T17:03:09.379Z,18.48
2019-02-21T17:05:39.888Z,18.35
2019-02-21T17:08:10.520Z,17.62
2019-02-21T17:10:41.023Z,19.40
2019-02-21T17:13:11.359Z,17.05
2019-02-21T17:15:43.638Z,17.42
2019-02-21T17:18:15.487Z,17.65
2019-02-21T17:20:46.566Z,21.00
2019-02-21T17:23:22.754Z,21.45
2019-02-21T17:25:49.228Z,24.47
2019-02-21T17:28:20.003Z,21.25
2019-02-21T17:30:50.467Z,21.30
2019-02-21T17:33:20.861Z,20.90
2019-02-21T17:35:51.305Z,21.90
2019-02-21T17:38:22.054Z,20.52
2019-02-21T17:40:52.385Z,19.98
2019-02-21T17:43:22.743Z,18.80
2019-02-21T17:45:53.219Z,18.10
2019-02-21T17:48:23.764Z,20.23
2019-02-21T17:50:54.193Z,21.62
2019-02-21T17:53:24.510Z,23.83
2019-02-21T17:55:55.883Z,20.05
2019-02-21T17:58:26.289Z,22.17
2019-02-21T18:00:56.592Z,22.37
2019-02-21T18:03:26.938Z,21.73
2019-02-21T18:05:57.244Z,23.07
2019-02-21T18:08:27.564Z,22.65
2019-02-21T18:10:57.935Z,22.02
2019-02-21T18:13:28.315Z,21.23
2019-02-21T18:15:59.215Z,21.87
2019-02-21T18:18:29.605Z,19.73
2019-02-21T18:21:00.199Z,20.80
2019-02-21T18:23:30.535Z,21.05
2019-02-21T18:26:11.311Z,22.22
2019-02-21T18:28:41.639Z,20.30
2019-02-21T18:31:22.702Z,20.60
2019-02-21T18:33:53.184Z,21.12
2019-02-21T18:36:23.722Z,24.25
2019-02-21T18:38:54.328Z,52.05
2019-02-21T18:41:24.675Z,41.63
2019-02-21T18:43:55.080Z,34.58
2019-02-21T18:46:25.427Z,64.62
2019-02-21T18:48:55.972Z,35.73
2019-02-21T18:51:26.344Z,138.65
2019-02-21T18:53:56.687Z,44.88
2019-02-21T18:56:27.253Z,61.37
2019-02-21T18:59:00.169Z,119.13
2019-02-21T19:01:30.596Z,80.03
2019-02-21T19:04:00.948Z,132.00
2019-02-21T19:06:32.303Z,62.95
2019-02-21T19:09:02.859Z,48.40
2019-02-21T19:11:34.866Z,24.40
2019-02-21T19:14:05.392Z,23.77
2019-02-21T19:16:35.900Z,22.77
2019-02-21T19:19:07.280Z,21.45
2019-02-21T19:21:38.583Z,22.55
2019-02-21T19:24:09.095Z,22.02
2019-02-21T19:26:39.670Z,20.85
2019-02-21T19:29:10.168Z,20.62
2019-02-21T19:31:40.975Z,21.23
2019-02-21T19:34:12.311Z,20.72
2019-02-21T19:36:42.873Z,20.37
2019-02-21T19:39:13.431Z,21.45
2019-02-21T19:41:44.287Z,20.15
2019-02-21T19:44:14.867Z,21.40
2019-02-21T19:46:45.307Z,20.35
2019-02-21T19:49:17.586Z,21.52
2019-02-21T19:51:48.076Z,20.05
2019-02-21T19:54:18.548Z,20.82
2019-02-21T19:56:50.073Z,38.45
2019-02-21T19:59:20.471Z,44.40
2019-02-21T20:01:51.010Z,27.67
2019-02-21T20:04:21.391Z,22.13
2019-02-21T20:06:51.808Z,26.45
2019-02-21T20:09:22.313Z,41.85
2019-02-21T20:11:53.095Z,29.57
2019-02-21T20:14:23.666Z,54.40
2019-02-21T20:16:54.243Z,72.45
2019-02-21T20:19:24.628Z,54.60
2019-02-21T20:21:55.507Z,85.67
2019-02-21T20:24:25.968Z,36.10
2019-02-21T20:27:10.457Z,31.85
2019-02-21T20:29:42.396Z,29.00
2019-02-21T20:32:18.333Z,24.72
2019-02-21T20:35:13.161Z,27.22
2019-02-21T20:40:44.761Z,22.55
2019-02-21T20:43:24.445Z,23.38
2019-02-21T20:45:55.950Z,23.02
2019-02-21T20:48:26.393Z,24.18
2019-02-21T20:50:57.438Z,24.35
2019-02-21T20:53:28.188Z,21.73
2019-02-21T20:55:58.679Z,24.70
2019-02-21T20:58:29.087Z,24.20
2019-02-21T21:00:59.703Z,24.57
2019-02-21T21:03:30.206Z,24.60
2019-02-21T21:06:00.656Z,23.92
2019-02-21T21:08:42.465Z,24.43
2019-02-21T21:11:04.615Z,23.25
2019-02-21T21:13:35.036Z,22.82
2019-02-21T21:16:05.543Z,23.65
2019-02-21T21:18:37.047Z,22.67
2019-02-21T21:21:07.517Z,23.67
2019-02-21T21:23:39.033Z,23.52
2019-02-21T21:26:10.311Z,23.10
2019-02-21T21:28:40.895Z,24.30
2019-02-21T21:31:11.399Z,22.70
2019-02-21T21:33:42.242Z,23.47
2019-02-21T21:36:29.697Z,23.00
2019-02-21T21:39:07.600Z,23.32
2019-02-21T21:41:47.395Z,24.07
2019-02-21T21:44:19.626Z,23.60
2019-02-21T21:46:50.183Z,24.07
2019-02-21T21:49:22.442Z,23.30
2019-02-21T21:51:52.936Z,24.23
2019-02-21T21:54:23.597Z,22.55
2019-02-21T21:56:53.932Z,23.57
2019-02-21T21:59:24.274Z,23.10
2019-02-21T22:01:54.706Z,22.98
2019-02-21T22:04:25.292Z,24.30
2019-02-21T22:06:56.442Z,25.02
2019-02-21T22:09:26.864Z,23.25
2019-02-21T22:11:59.048Z,22.95
2019-02-21T22:14:29.391Z,23.90
2019-02-21T22:16:59.850Z,24.00
2019-02-21T22:19:30.275Z,23.30
2019-02-21T22:22:00.751Z,24.02
2019-02-21T22:24:32.587Z,24.00
2019-02-21T22:27:02.965Z,23.32
2019-02-21T22:29:33.401Z,24.32
2019-02-21T22:32:03.844Z,24.67
2019-02-21T22:34:34.291Z,24.85
2019-02-21T22:37:04.752Z,27.15
2019-02-21T22:39:35.135Z,25.30
2019-02-21T22:42:05.604Z,25.37
2019-02-21T22:44:36.983Z,24.57
2019-02-21T22:47:07.503Z,24.05
2019-02-21T22:49:37.968Z,23.67
2019-02-21T22:52:09.102Z,24.37
2019-02-21T22:54:39.722Z,24.37
2019-02-21T22:57:10.297Z,23.98
2019-02-21T22:59:41.165Z,25.48
2019-02-21T23:02:11.968Z,24.07
2019-02-21T23:05:18.747Z,24.65
2019-02-21T23:08:21.396Z,24.27
2019-02-21T23:10:51.806Z,24.20
2019-02-21T23:13:22.261Z,24.10
2019-02-21T23:15:52.702Z,24.27
2019-02-21T23:18:23.104Z,24.32
2019-02-21T23:20:53.540Z,25.12
2019-02-21T23:23:23.936Z,25.00
2019-02-21T23:25:54.583Z,25.02
2019-02-21T23:28:25.071Z,24.77
2019-02-21T23:30:55.660Z,22.73
2019-02-21T23:33:28.351Z,24.72
2019-02-21T23:35:58.941Z,25.30
2019-02-21T23:38:29.451Z,23.27
2019-02-21T23:40:59.907Z,24.43
2019-02-21T23:43:31.419Z,25.97
2019-02-21T23:46:01.915Z,24.37
2019-02-21T23:48:33.042Z,25.23
2019-02-21T23:51:03.547Z,25.05
2019-02-21T23:53:34.015Z,26.02
2019-02-21T23:56:06.142Z,25.50
2019-02-21T23:58:37.603Z,24.50
